This is the latest recevied weather packets stored in our database for station/object K3JSE-4. If no packets are shown the sender has not sent any weather packets the latest 10 day(s).
| Time | Temp. | Humidity | Pressure | Rain* | Wind** | Luminosity | Snow |
|---|---|---|---|---|---|---|---|
| 1777574144 | 15.56° C | 59% | 1008.4 hPa | 0 mm | - | - | - |
| 1777573844 | 15.56° C | 61% | 1008.5 hPa | 0 mm | - | - | - |
| 1777573544 | 16.11° C | 55% | 1008.4 hPa | 0.25 mm | - | - | - |
| 1777573244 | 16.11° C | 65% | 1008.2 hPa | 0.25 mm | - | - | - |
| 1777572944 | 15° C | 61% | 1008.5 hPa | 0.25 mm | - | - | - |
| 1777572644 | 15° C | 61% | 1008.6 hPa | 0.25 mm | - | - | - |
| 1777572344 | 15° C | 59% | 1008.5 hPa | 0.25 mm | - | - | - |
| 1777572044 | 15.56° C | 58% | 1008.5 hPa | 0.25 mm | - | - | - |
| 1777571744 | 16.11° C | 64% | 1008.6 hPa | 0.25 mm | - | - | - |
| 1777571444 | 15.56° C | 64% | 1008.5 hPa | 0.25 mm | - | - | - |
| 1777571144 | 15.56° C | 63% | 1008.5 hPa | 0.25 mm | - | - | - |
| 1777570844 | 15° C | 64% | 1008.6 hPa | 0.25 mm | - | - | - |
| 1777570544 | 15° C | 63% | 1008.6 hPa | 0.25 mm | - | - | - |
| 1777570244 | 14.44° C | 64% | 1008.8 hPa | 0.25 mm | - | - | - |
| 1777569944 | 15° C | 62% | 1008.8 hPa | 0 mm | - | - | - |
| 1777569643 | 15.56° C | 62% | 1008.7 hPa | 0 mm | - | - | - |
| 1777569344 | 16.11° C | 64% | 1008.6 hPa | 0 mm | - | - | - |
| 1777569044 | 15° C | 63% | 1008.7 hPa | 0 mm | - | - | - |
| 1777568744 | 15.56° C | 65% | 1008.6 hPa | 0 mm | - | - | - |
| 1777568443 | 15° C | 65% | 1008.8 hPa | 0 mm | - | - | - |
| 1777568144 | 15° C | 65% | 1008.6 hPa | 0 mm | - | - | - |
| 1777567843 | 15° C | 72% | 1008.7 hPa | 0 mm | - | - | - |
| 1777567544 | 14.44° C | 70% | 1008.8 hPa | 0 mm | - | - | - |
| 1777567244 | 14.44° C | 70% | 1008.9 hPa | 0 mm | - | - | - |
| 1777566943 | 13.89° C | 69% | 1009 hPa | 0 mm | - | - | - |
* Rain latest hour (hover to see other rain measurements)
** Current wind speed in m/s (hover to see current wind gust speed)